createdAt,value
2018-01-27T00:00:03.310Z,6.66
2018-01-27T00:01:03.305Z,6.64
2018-01-27T00:02:03.292Z,6.64
2018-01-27T00:03:03.349Z,6.69
2018-01-27T00:04:03.284Z,6.59
2018-01-27T00:05:03.276Z,6.69
2018-01-27T00:06:03.267Z,6.66
2018-01-27T00:07:03.264Z,6.73
2018-01-27T00:08:03.284Z,6.71
2018-01-27T00:09:03.250Z,6.66
2018-01-27T00:10:03.251Z,6.67
2018-01-27T00:11:03.240Z,6.66
2018-01-27T00:12:03.236Z,6.69
2018-01-27T00:13:03.223Z,6.74
2018-01-27T00:14:03.223Z,6.77
2018-01-27T00:15:03.217Z,6.69
2018-01-27T00:16:03.219Z,6.69
2018-01-27T00:17:03.201Z,6.70
2018-01-27T00:18:03.192Z,6.70
2018-01-27T00:19:03.189Z,6.61
2018-01-27T00:20:03.186Z,6.62
2018-01-27T00:21:03.172Z,6.74
2018-01-27T00:22:03.172Z,6.66
2018-01-27T00:23:03.169Z,6.66
2018-01-27T00:24:03.164Z,6.62
2018-01-27T00:25:03.159Z,6.76
2018-01-27T00:26:03.147Z,6.76
2018-01-27T00:27:03.143Z,6.66
2018-01-27T00:28:03.140Z,6.76
2018-01-27T00:29:03.128Z,6.67
2018-01-27T00:30:03.124Z,6.66
2018-01-27T00:31:03.112Z,6.80
2018-01-27T00:32:03.112Z,6.66
2018-01-27T00:33:03.101Z,6.71
2018-01-27T00:34:03.104Z,6.74
2018-01-27T00:35:03.095Z,6.79
2018-01-27T00:36:03.086Z,6.64
2018-01-27T00:37:03.077Z,6.76
2018-01-27T00:38:03.079Z,6.76
2018-01-27T00:39:03.070Z,6.66
2018-01-27T00:40:03.062Z,6.80
2018-01-27T00:41:03.062Z,6.62
2018-01-27T00:42:03.046Z,6.62
2018-01-27T00:43:03.044Z,6.66
2018-01-27T00:44:03.044Z,6.73
2018-01-27T00:45:03.033Z,6.66
2018-01-27T00:46:03.024Z,6.58
2018-01-27T00:47:03.020Z,6.61
2018-01-27T00:48:03.017Z,6.66
2018-01-27T00:49:03.004Z,6.61
2018-01-27T00:50:03.008Z,6.51
2018-01-27T00:51:02.997Z,6.54
2018-01-27T00:52:02.993Z,6.54
2018-01-27T00:53:02.986Z,6.46
2018-01-27T00:54:02.982Z,6.54
2018-01-27T00:55:02.971Z,6.62
2018-01-27T00:56:02.968Z,6.48
2018-01-27T00:57:02.963Z,6.46
2018-01-27T00:58:02.954Z,6.49
2018-01-27T00:59:02.952Z,6.52
2018-01-27T01:00:02.946Z,6.41
2018-01-27T01:01:02.934Z,6.46
2018-01-27T01:02:02.928Z,6.46
2018-01-27T01:03:02.917Z,6.48
2018-01-27T01:04:02.917Z,6.49
2018-01-27T01:05:02.907Z,6.44
2018-01-27T01:06:02.909Z,6.49
2018-01-27T01:07:02.899Z,6.41
2018-01-27T01:08:02.888Z,6.44
2018-01-27T01:09:02.881Z,6.46
2018-01-27T01:10:02.886Z,6.41
2018-01-27T01:11:02.873Z,6.49
2018-01-27T01:12:02.870Z,6.44
2018-01-27T01:13:02.859Z,6.31
2018-01-27T01:14:02.849Z,6.37
2018-01-27T01:15:02.847Z,6.43
2018-01-27T01:16:02.843Z,6.34
2018-01-27T01:17:02.835Z,6.34
2018-01-27T01:18:02.828Z,6.34
2018-01-27T01:19:02.821Z,6.33
2018-01-27T01:20:02.814Z,6.33
2018-01-27T01:21:02.810Z,6.37
2018-01-27T01:22:02.805Z,6.38
2018-01-27T01:23:02.802Z,6.31
2018-01-27T01:24:02.800Z,6.37
2018-01-27T01:25:02.779Z,6.37
2018-01-27T01:26:02.777Z,6.31
2018-01-27T01:27:02.771Z,6.33
2018-01-27T01:28:02.765Z,6.27
2018-01-27T01:29:02.756Z,6.33
2018-01-27T01:30:02.749Z,6.31
2018-01-27T01:31:02.745Z,6.27
2018-01-27T01:32:02.751Z,6.25
2018-01-27T01:33:02.734Z,6.28
2018-01-27T01:34:02.722Z,6.34
2018-01-27T01:35:02.717Z,6.27
2018-01-27T01:36:02.712Z,6.22
2018-01-27T01:37:02.702Z,6.22
2018-01-27T01:38:02.697Z,6.33
2018-01-27T01:39:02.691Z,6.34
2018-01-27T01:40:02.681Z,6.31
2018-01-27T01:41:02.674Z,6.33
2018-01-27T01:42:02.671Z,6.27
2018-01-27T01:43:02.664Z,6.33
2018-01-27T01:44:02.663Z,6.34
2018-01-27T01:45:02.656Z,6.34
2018-01-27T01:46:02.699Z,6.28
2018-01-27T01:47:02.636Z,6.22
2018-01-27T01:48:02.632Z,6.22
2018-01-27T01:49:02.624Z,6.25
2018-01-27T01:50:02.614Z,6.27
2018-01-27T01:51:02.614Z,6.28
2018-01-27T01:52:02.604Z,6.33
2018-01-27T01:53:02.595Z,6.30
2018-01-27T01:54:02.616Z,6.28
2018-01-27T01:55:02.589Z,6.27
2018-01-27T01:56:02.577Z,6.25
2018-01-27T01:57:02.570Z,6.30
2018-01-27T01:58:02.568Z,6.22
2018-01-27T01:59:02.575Z,6.27
2018-01-27T02:00:02.551Z,6.27
2018-01-27T02:01:02.548Z,6.28
2018-01-27T02:02:02.538Z,6.27
2018-01-27T02:03:02.528Z,6.30
2018-01-27T02:04:02.526Z,6.37
2018-01-27T02:05:02.526Z,6.27
2018-01-27T02:06:02.511Z,6.31
2018-01-27T02:07:02.504Z,6.27
2018-01-27T02:08:02.500Z,6.37
2018-01-27T02:09:02.488Z,6.37
2018-01-27T02:10:02.486Z,6.34
2018-01-27T02:11:02.479Z,6.38
2018-01-27T02:12:02.475Z,6.34
2018-01-27T02:13:02.461Z,6.34
2018-01-27T02:14:02.459Z,6.28
2018-01-27T02:15:02.451Z,6.38
2018-01-27T02:16:02.449Z,6.37
2018-01-27T02:17:02.442Z,6.28
2018-01-27T02:18:02.430Z,6.36
2018-01-27T02:19:02.425Z,6.27
2018-01-27T02:20:02.427Z,6.33
2018-01-27T02:21:02.416Z,6.27
2018-01-27T02:22:02.407Z,6.27
2018-01-27T02:23:02.395Z,6.36
2018-01-27T02:24:02.420Z,6.28
2018-01-27T02:25:02.387Z,6.30
2018-01-27T02:26:02.384Z,6.33
2018-01-27T02:27:02.375Z,6.27
2018-01-27T02:28:02.369Z,6.27
2018-01-27T02:29:02.361Z,6.31
2018-01-27T02:30:02.354Z,6.22
2018-01-27T02:31:02.345Z,6.33
2018-01-27T02:32:02.335Z,6.25
2018-01-27T02:33:02.328Z,6.22
2018-01-27T02:34:02.326Z,6.28
2018-01-27T02:35:02.320Z,6.27
2018-01-27T02:36:02.312Z,6.31
2018-01-27T02:37:02.305Z,6.22
2018-01-27T02:38:02.302Z,6.36
2018-01-27T02:39:02.298Z,6.33
2018-01-27T02:40:02.594Z,6.27
2018-01-27T02:41:02.287Z,6.30
2018-01-27T02:42:02.268Z,6.37
2018-01-27T02:43:02.262Z,6.36
2018-01-27T02:44:02.262Z,6.36
2018-01-27T02:45:02.260Z,6.33
2018-01-27T02:46:02.347Z,6.36
2018-01-27T02:47:02.237Z,6.37
2018-01-27T02:48:02.240Z,6.36
2018-01-27T02:49:02.233Z,6.37
2018-01-27T02:50:02.225Z,6.37
2018-01-27T02:51:02.217Z,6.37
2018-01-27T02:52:02.210Z,6.22
2018-01-27T02:53:02.199Z,6.34
2018-01-27T02:54:02.196Z,6.28
2018-01-27T02:55:02.189Z,6.19
2018-01-27T02:56:02.185Z,6.19
2018-01-27T02:57:02.180Z,6.30
2018-01-27T02:58:02.184Z,6.34
2018-01-27T02:59:02.163Z,6.31
2018-01-27T03:00:02.161Z,6.22
2018-01-27T03:01:02.156Z,6.27
2018-01-27T03:02:02.141Z,6.19
2018-01-27T03:03:02.135Z,6.15
2018-01-27T03:04:02.126Z,6.22
2018-01-27T03:05:02.123Z,6.18
2018-01-27T03:06:02.117Z,6.27
2018-01-27T03:07:02.115Z,6.09
2018-01-27T03:08:02.104Z,6.18
2018-01-27T03:09:02.096Z,6.25
2018-01-27T03:10:02.092Z,6.18
2018-01-27T03:11:02.088Z,6.19
2018-01-27T03:12:02.084Z,6.11
2018-01-27T03:13:02.072Z,6.14
2018-01-27T03:14:02.066Z,6.14
2018-01-27T03:15:02.055Z,6.17
2018-01-27T03:16:02.058Z,6.14
2018-01-27T03:17:02.045Z,6.17
2018-01-27T03:18:02.041Z,6.12
2018-01-27T03:19:02.033Z,6.04
2018-01-27T03:20:02.037Z,6.09
2018-01-27T03:21:02.020Z,6.06
2018-01-27T03:22:02.015Z,6.11
2018-01-27T03:23:02.008Z,6.11
2018-01-27T03:24:01.994Z,6.11
2018-01-27T03:25:01.992Z,6.09
2018-01-27T03:26:01.985Z,6.15
2018-01-27T03:27:01.982Z,6.12
2018-01-27T03:28:01.974Z,6.15
2018-01-27T03:29:01.967Z,6.12
2018-01-27T03:30:01.958Z,6.14
2018-01-27T03:31:01.952Z,6.17
2018-01-27T03:32:01.952Z,6.08
2018-01-27T03:33:01.947Z,6.08
2018-01-27T03:34:01.936Z,6.00
2018-01-27T03:35:01.943Z,6.09
2018-01-27T03:36:01.920Z,6.00
2018-01-27T03:37:01.914Z,6.06
2018-01-27T03:38:01.909Z,6.04
2018-01-27T03:39:01.906Z,6.06
2018-01-27T03:40:01.889Z,6.04
2018-01-27T03:41:01.883Z,5.94
2018-01-27T03:42:01.892Z,5.97
2018-01-27T03:43:01.892Z,6.01
2018-01-27T03:44:01.872Z,5.96
2018-01-27T03:45:01.860Z,5.94
2018-01-27T03:46:01.849Z,5.94
2018-01-27T03:47:01.841Z,5.90
2018-01-27T03:48:01.843Z,5.90
2018-01-27T03:49:01.834Z,5.85
2018-01-27T03:50:01.827Z,5.85
2018-01-27T03:51:01.816Z,5.82
2018-01-27T03:52:01.809Z,5.82
2018-01-27T03:53:01.800Z,5.86
2018-01-27T03:54:01.795Z,5.79
2018-01-27T03:55:01.788Z,5.82
2018-01-27T03:56:01.780Z,5.89
2018-01-27T03:57:01.776Z,5.79
2018-01-27T03:58:01.769Z,5.82
2018-01-27T03:59:01.763Z,5.86
2018-01-27T04:00:01.755Z,5.78
2018-01-27T04:01:01.746Z,5.75
2018-01-27T04:02:01.740Z,5.83
2018-01-27T04:03:01.731Z,5.82
2018-01-27T04:04:01.980Z,5.90
2018-01-27T04:05:01.718Z,5.86
2018-01-27T04:06:01.712Z,5.81
2018-01-27T04:07:01.724Z,5.79
2018-01-27T04:08:01.695Z,5.79
2018-01-27T04:09:01.694Z,5.86
2018-01-27T04:10:01.692Z,5.96
2018-01-27T04:11:01.682Z,5.89
2018-01-27T04:12:01.666Z,5.89
2018-01-27T04:13:01.665Z,5.85
2018-01-27T04:14:01.656Z,5.86
2018-01-27T04:15:01.656Z,5.74
2018-01-27T04:16:01.647Z,5.85
2018-01-27T04:17:01.639Z,5.79
2018-01-27T04:18:01.629Z,5.81
2018-01-27T04:19:01.623Z,5.79
2018-01-27T04:20:01.620Z,5.81
2018-01-27T04:21:01.613Z,5.85
2018-01-27T04:22:01.607Z,5.82
2018-01-27T04:23:01.596Z,5.86
2018-01-27T04:24:01.592Z,5.91
2018-01-27T04:25:01.584Z,5.90
2018-01-27T04:26:01.579Z,5.97
2018-01-27T04:27:01.572Z,5.82
2018-01-27T04:28:01.565Z,5.82
2018-01-27T04:29:01.561Z,5.79
2018-01-27T04:30:01.560Z,5.85
2018-01-27T04:31:01.550Z,5.89
2018-01-27T04:32:01.542Z,5.83
2018-01-27T04:33:01.534Z,5.81
2018-01-27T04:34:01.527Z,5.79
2018-01-27T04:35:01.518Z,5.78
2018-01-27T04:36:01.513Z,5.82
2018-01-27T04:37:01.504Z,5.86
2018-01-27T04:38:01.503Z,5.93
2018-01-27T04:39:01.503Z,5.83
2018-01-27T04:40:01.497Z,5.83
2018-01-27T04:41:01.485Z,5.78
2018-01-27T04:42:01.475Z,5.85
2018-01-27T04:43:01.470Z,5.81
2018-01-27T04:44:01.464Z,5.82
2018-01-27T04:45:01.458Z,5.85
2018-01-27T04:46:01.451Z,5.93
2018-01-27T04:47:01.447Z,5.91
2018-01-27T04:48:01.442Z,5.94
2018-01-27T04:49:01.432Z,5.99
2018-01-27T04:50:01.430Z,5.96
2018-01-27T04:51:01.422Z,6.03
2018-01-27T04:52:01.412Z,6.03
2018-01-27T04:53:01.405Z,5.91
2018-01-27T04:54:01.407Z,5.89
2018-01-27T04:55:01.399Z,5.94
2018-01-27T04:56:01.390Z,5.89
2018-01-27T04:57:01.388Z,5.91
2018-01-27T04:58:01.376Z,5.93
2018-01-27T04:59:01.372Z,5.89
2018-01-27T05:00:01.371Z,5.97
2018-01-27T05:01:01.360Z,6.11
2018-01-27T05:02:01.350Z,6.03
2018-01-27T05:03:01.345Z,6.11
2018-01-27T05:04:01.338Z,6.04
2018-01-27T05:05:01.335Z,6.09
2018-01-27T05:06:01.333Z,6.14
2018-01-27T05:07:01.328Z,6.14
2018-01-27T05:08:01.318Z,6.14
2018-01-27T05:09:01.304Z,6.18
2018-01-27T05:10:01.303Z,6.14
2018-01-27T05:11:01.297Z,6.03
2018-01-27T05:12:01.309Z,6.09
2018-01-27T05:13:01.290Z,6.08
2018-01-27T05:14:01.278Z,6.12
2018-01-27T05:15:01.272Z,6.06
2018-01-27T05:16:01.273Z,6.11
2018-01-27T05:17:01.261Z,6.11
2018-01-27T05:18:01.250Z,6.12
2018-01-27T05:19:01.243Z,6.06
2018-01-27T05:20:01.240Z,6.18
2018-01-27T05:21:01.236Z,6.17
2018-01-27T05:22:01.230Z,6.15
2018-01-27T05:23:01.224Z,6.18
2018-01-27T05:24:01.213Z,6.14
2018-01-27T05:25:01.213Z,6.18
2018-01-27T05:26:01.206Z,6.22
2018-01-27T05:27:01.203Z,6.19
2018-01-27T05:28:01.448Z,6.15
2018-01-27T05:29:01.188Z,6.15
2018-01-27T05:30:01.181Z,6.09
2018-01-27T05:31:01.169Z,6.18
2018-01-27T05:32:01.171Z,6.11
2018-01-27T05:33:01.165Z,6.18
2018-01-27T05:34:01.151Z,6.14
2018-01-27T05:35:01.148Z,6.25
2018-01-27T05:36:01.138Z,6.22
2018-01-27T05:37:01.136Z,6.12
2018-01-27T05:38:01.135Z,6.19
2018-01-27T05:39:01.127Z,6.31
2018-01-27T05:40:01.114Z,6.28
2018-01-27T05:41:01.108Z,6.22
2018-01-27T05:42:01.106Z,6.22
2018-01-27T05:43:01.103Z,6.27
2018-01-27T05:44:01.093Z,6.28
2018-01-27T05:45:01.086Z,6.27
2018-01-27T05:46:01.085Z,6.27
2018-01-27T05:47:01.084Z,6.22
2018-01-27T05:48:01.089Z,6.34
2018-01-27T05:49:01.065Z,6.30
2018-01-27T05:50:01.054Z,6.25
2018-01-27T05:51:01.052Z,6.37
2018-01-27T05:52:01.047Z,6.30
2018-01-27T05:53:01.034Z,6.30
2018-01-27T05:54:01.038Z,6.36
2018-01-27T05:55:01.028Z,6.31
2018-01-27T05:56:01.025Z,6.34
2018-01-27T05:57:01.028Z,6.41
2018-01-27T05:58:01.007Z,6.31
2018-01-27T05:59:01.001Z,6.27
2018-01-27T06:00:00.998Z,6.25
2018-01-27T06:01:00.989Z,6.31
2018-01-27T06:02:00.981Z,6.28
2018-01-27T06:03:00.973Z,6.27
2018-01-27T06:04:00.970Z,6.25
2018-01-27T06:05:00.962Z,6.17
2018-01-27T06:06:00.958Z,6.19
2018-01-27T06:07:00.945Z,6.15
2018-01-27T06:08:00.941Z,6.18
2018-01-27T06:09:00.934Z,6.15
2018-01-27T06:10:00.932Z,6.15
2018-01-27T06:11:00.930Z,6.15
2018-01-27T06:12:00.915Z,6.19
2018-01-27T06:13:00.909Z,6.11
2018-01-27T06:14:00.907Z,6.15
2018-01-27T06:15:00.902Z,6.17
2018-01-27T06:16:00.895Z,6.14
2018-01-27T06:17:00.884Z,6.14
2018-01-27T06:18:00.878Z,6.17
2018-01-27T06:19:00.873Z,6.15
2018-01-27T06:20:00.868Z,6.15
2018-01-27T06:21:00.860Z,6.17
2018-01-27T06:22:00.849Z,6.15
2018-01-27T06:23:00.842Z,6.12
2018-01-27T06:24:00.834Z,6.12
2018-01-27T06:25:00.826Z,6.11
2018-01-27T06:26:00.829Z,6.06
2018-01-27T06:27:00.824Z,6.14
2018-01-27T06:28:00.808Z,6.09
2018-01-27T06:29:00.800Z,6.12
2018-01-27T06:30:00.799Z,6.15
2018-01-27T06:31:00.793Z,6.15
2018-01-27T06:32:00.792Z,6.17
2018-01-27T06:33:00.782Z,6.14
2018-01-27T06:34:00.774Z,6.30
2018-01-27T06:35:00.763Z,6.22
2018-01-27T06:36:00.766Z,6.14
2018-01-27T06:37:00.758Z,6.28
2018-01-27T06:38:00.745Z,6.22
2018-01-27T06:39:00.736Z,6.15
2018-01-27T06:40:00.735Z,6.19
2018-01-27T06:41:00.724Z,6.28
2018-01-27T06:42:00.722Z,6.21
2018-01-27T06:43:00.716Z,6.27
2018-01-27T06:44:00.704Z,6.25
2018-01-27T06:45:00.697Z,6.25
2018-01-27T06:46:00.700Z,6.21
2018-01-27T06:47:00.694Z,6.22
2018-01-27T06:48:00.685Z,6.27
2018-01-27T06:49:00.678Z,6.22
2018-01-27T06:50:00.670Z,6.27
2018-01-27T06:51:00.663Z,6.22
2018-01-27T06:52:00.658Z,6.27
2018-01-27T06:53:00.649Z,6.22
2018-01-27T06:54:00.638Z,6.31
2018-01-27T06:55:00.633Z,6.37
2018-01-27T06:56:00.629Z,6.38
2018-01-27T06:57:00.650Z,6.37
2018-01-27T06:58:00.723Z,6.41
2018-01-27T06:59:00.615Z,6.36
2018-01-27T07:00:00.603Z,6.46
2018-01-27T07:01:00.595Z,6.51
2018-01-27T07:02:00.598Z,6.56
2018-01-27T07:03:00.590Z,6.44
2018-01-27T07:04:00.580Z,6.49
2018-01-27T07:05:00.574Z,6.38
2018-01-27T07:06:00.562Z,6.44
2018-01-27T07:07:00.566Z,6.46
2018-01-27T07:08:00.557Z,6.41
2018-01-27T07:09:00.551Z,6.44
2018-01-27T07:10:00.540Z,6.41
2018-01-27T07:11:00.535Z,6.46
2018-01-27T07:12:00.526Z,6.41
2018-01-27T07:13:00.519Z,6.54
2018-01-27T07:14:00.516Z,6.46
2018-01-27T07:15:00.510Z,6.43
2018-01-27T07:16:00.539Z,6.55
2018-01-27T07:17:00.497Z,6.59
2018-01-27T07:18:00.497Z,6.51
2018-01-27T07:19:00.489Z,6.41
2018-01-27T07:20:00.484Z,6.51
2018-01-27T07:21:00.474Z,6.46
2018-01-27T07:22:00.466Z,6.49
2018-01-27T07:23:00.458Z,6.52
2018-01-27T07:24:00.455Z,6.44
2018-01-27T07:25:00.451Z,6.40
2018-01-27T07:26:00.443Z,6.51
2018-01-27T07:27:00.430Z,6.46
2018-01-27T07:28:00.426Z,6.49
2018-01-27T07:29:00.424Z,6.48
2018-01-27T07:30:00.419Z,6.37
2018-01-27T07:31:00.416Z,6.36
2018-01-27T07:32:00.403Z,6.44
2018-01-27T07:33:00.398Z,6.43
2018-01-27T07:34:00.394Z,6.41
2018-01-27T07:35:00.387Z,6.56
2018-01-27T07:36:00.379Z,6.43
2018-01-27T07:37:00.374Z,6.59
2018-01-27T07:38:00.362Z,6.55
2018-01-27T07:39:00.355Z,6.55
2018-01-27T07:40:00.356Z,6.58
2018-01-27T07:41:00.350Z,6.58
2018-01-27T07:42:00.340Z,6.51
2018-01-27T07:43:00.337Z,6.55
2018-01-27T07:44:00.333Z,6.58
2018-01-27T07:45:00.322Z,6.56
2018-01-27T07:46:00.320Z,6.56
2018-01-27T07:47:00.310Z,6.55
2018-01-27T07:48:00.304Z,6.56
2018-01-27T07:49:00.300Z,6.44
2018-01-27T07:50:00.293Z,6.51
2018-01-27T07:51:00.289Z,6.51
2018-01-27T07:52:00.285Z,6.49
2018-01-27T07:53:00.272Z,6.46
2018-01-27T07:54:00.268Z,6.38
2018-01-27T07:55:00.260Z,6.44
2018-01-27T07:56:00.258Z,6.46
2018-01-27T07:57:00.249Z,6.41
2018-01-27T07:58:00.239Z,6.43
2018-01-27T07:59:00.232Z,6.46
2018-01-27T08:00:00.224Z,6.41
2018-01-27T08:01:00.221Z,6.44
2018-01-27T08:02:00.226Z,6.44
2018-01-27T08:03:00.209Z,6.40
2018-01-27T08:04:00.197Z,6.43
2018-01-27T08:05:00.194Z,6.51
2018-01-27T08:06:00.189Z,6.41
2018-01-27T08:07:00.183Z,6.49
2018-01-27T08:08:00.180Z,6.44
2018-01-27T08:09:00.172Z,6.48
2018-01-27T08:10:00.170Z,6.44
2018-01-27T08:11:00.175Z,6.51
2018-01-27T08:12:00.206Z,6.41
2018-01-27T08:13:00.148Z,6.36
2018-01-27T08:14:00.137Z,6.33
2018-01-27T08:15:00.125Z,6.40
2018-01-27T08:16:00.128Z,6.40
2018-01-27T08:17:00.118Z,6.34
2018-01-27T08:18:00.112Z,6.37
2018-01-27T08:19:00.109Z,6.22
2018-01-27T08:20:00.100Z,6.31
2018-01-27T08:21:00.088Z,6.37
2018-01-27T08:22:00.085Z,6.34
2018-01-27T08:23:00.081Z,6.21
2018-01-27T08:24:00.070Z,6.21
2018-01-27T08:25:00.070Z,6.25
2018-01-27T08:26:00.053Z,6.30
2018-01-27T08:27:00.047Z,6.25
2018-01-27T08:28:00.050Z,6.27
2018-01-27T08:29:00.039Z,6.34
2018-01-27T08:30:00.042Z,6.37
2018-01-27T08:31:00.027Z,6.38
2018-01-27T08:32:00.020Z,6.33
2018-01-27T08:33:00.007Z,6.33
2018-01-27T08:34:00.010Z,6.27
2018-01-27T08:35:00.001Z,6.36
2018-01-27T08:35:59.985Z,6.27
2018-01-27T08:36:59.984Z,6.33
2018-01-27T08:37:59.977Z,6.22
2018-01-27T08:38:59.970Z,6.33
2018-01-27T08:39:59.966Z,6.30
2018-01-27T08:40:59.960Z,6.27
2018-01-27T08:41:59.949Z,6.18
2018-01-27T08:42:59.943Z,6.27
2018-01-27T08:43:59.941Z,6.31
2018-01-27T08:44:59.936Z,6.27
2018-01-27T08:45:59.921Z,6.25
2018-01-27T08:46:59.913Z,6.27
2018-01-27T08:47:59.912Z,6.34
2018-01-27T08:48:59.904Z,6.34
2018-01-27T08:49:59.903Z,6.36
2018-01-27T08:50:59.893Z,6.30
2018-01-27T08:51:59.890Z,6.40
2018-01-27T08:52:59.878Z,6.34
2018-01-27T08:53:59.868Z,6.34
2018-01-27T08:54:59.860Z,6.44
2018-01-27T08:55:59.852Z,6.33
2018-01-27T08:56:59.844Z,6.38
2018-01-27T08:57:59.843Z,6.48
2018-01-27T08:58:59.842Z,6.49
2018-01-27T08:59:59.831Z,6.46
2018-01-27T09:00:59.821Z,6.49
2018-01-27T09:01:59.821Z,6.43
2018-01-27T09:02:59.812Z,6.46
2018-01-27T09:03:59.802Z,6.58
2018-01-27T09:04:59.802Z,6.56
2018-01-27T09:05:59.790Z,6.51
2018-01-27T09:06:59.778Z,6.54
2018-01-27T09:07:59.777Z,6.48
2018-01-27T09:08:59.769Z,6.51
2018-01-27T09:09:59.764Z,6.59
2018-01-27T09:10:59.758Z,6.58
2018-01-27T09:11:59.750Z,6.62
2018-01-27T09:12:59.741Z,6.67
2018-01-27T09:13:59.777Z,6.59
2018-01-27T09:14:59.733Z,6.62
2018-01-27T09:15:59.720Z,6.64
2018-01-27T09:16:59.719Z,6.73
2018-01-27T09:17:59.714Z,6.71
2018-01-27T09:18:59.703Z,6.61
2018-01-27T09:19:59.700Z,6.76
2018-01-27T09:20:59.693Z,6.77
2018-01-27T09:21:59.685Z,6.76
2018-01-27T09:22:59.676Z,6.87
2018-01-27T09:23:59.682Z,6.77
2018-01-27T09:24:59.672Z,6.87
2018-01-27T09:25:59.657Z,6.79
2018-01-27T09:26:59.651Z,6.92
2018-01-27T09:27:59.644Z,6.85
2018-01-27T09:28:59.641Z,6.84
2018-01-27T09:29:59.640Z,6.88
2018-01-27T09:30:59.628Z,6.92
2018-01-27T09:31:59.622Z,6.92
2018-01-27T09:32:59.613Z,6.89
2018-01-27T09:33:59.611Z,6.97
2018-01-27T09:34:59.607Z,6.95
2018-01-27T09:35:59.603Z,6.92
2018-01-27T09:36:59.595Z,6.97
2018-01-27T09:37:59.587Z,6.98
2018-01-27T09:38:59.575Z,7.02
2018-01-27T09:39:59.573Z,6.98
2018-01-27T09:40:59.570Z,7.07
2018-01-27T09:41:59.564Z,7.12
2018-01-27T09:42:59.554Z,7.27
2018-01-27T09:43:59.547Z,7.40
2018-01-27T09:44:59.548Z,7.49
2018-01-27T09:45:59.538Z,7.58
2018-01-27T09:46:59.532Z,7.67
2018-01-27T09:47:59.525Z,7.75
2018-01-27T09:48:59.513Z,7.72
2018-01-27T09:49:59.517Z,7.72
2018-01-27T09:50:59.506Z,7.71
2018-01-27T09:51:59.502Z,7.87
2018-01-27T09:52:59.495Z,7.95
2018-01-27T09:53:59.488Z,7.89
2018-01-27T09:54:59.480Z,7.89
2018-01-27T09:55:59.482Z,7.72
2018-01-27T09:56:59.470Z,7.71
2018-01-27T09:57:59.561Z,7.67
2018-01-27T09:58:59.458Z,7.68
2018-01-27T09:59:59.451Z,7.77
2018-01-27T10:00:59.443Z,7.83
2018-01-27T10:01:59.444Z,8.02
2018-01-27T10:02:59.437Z,8.07
2018-01-27T10:03:59.425Z,8.04
2018-01-27T10:04:59.422Z,8.07
2018-01-27T10:05:59.417Z,8.10
2018-01-27T10:06:59.412Z,8.11
2018-01-27T10:07:59.410Z,7.93
2018-01-27T10:08:59.402Z,7.90
2018-01-27T10:09:59.392Z,7.89
2018-01-27T10:10:59.392Z,7.80
2018-01-27T10:11:59.387Z,7.83
2018-01-27T10:12:59.383Z,7.63
2018-01-27T10:13:59.374Z,7.61
2018-01-27T10:14:59.368Z,7.61
2018-01-27T10:15:59.368Z,7.61
2018-01-27T10:16:59.350Z,7.61
2018-01-27T10:17:59.349Z,7.67
2018-01-27T10:18:59.343Z,7.72
2018-01-27T10:19:59.337Z,7.77
2018-01-27T10:20:59.329Z,7.79
2018-01-27T10:21:59.329Z,7.74
2018-01-27T10:22:59.322Z,7.71
2018-01-27T10:23:59.320Z,7.64
2018-01-27T10:24:59.324Z,7.74
2018-01-27T10:25:59.305Z,7.63
2018-01-27T10:26:59.293Z,7.69
2018-01-27T10:27:59.292Z,7.86
2018-01-27T10:28:59.285Z,7.82
2018-01-27T10:29:59.278Z,7.82
2018-01-27T10:30:59.270Z,7.83
2018-01-27T10:31:59.266Z,7.95
2018-01-27T10:32:59.261Z,7.89
2018-01-27T10:33:59.261Z,7.93
2018-01-27T10:34:59.254Z,7.95
2018-01-27T10:35:59.244Z,7.82
2018-01-27T10:36:59.234Z,7.72
2018-01-27T10:37:59.232Z,7.75
2018-01-27T10:38:59.233Z,7.69
2018-01-27T10:39:59.227Z,7.71
2018-01-27T10:40:59.216Z,7.61
2018-01-27T10:41:59.210Z,7.53
2018-01-27T10:42:59.201Z,7.52
2018-01-27T10:43:59.199Z,7.45
2018-01-27T10:44:59.194Z,7.45
2018-01-27T10:45:59.183Z,7.45
2018-01-27T10:46:59.178Z,7.34
2018-01-27T10:47:59.169Z,7.30
2018-01-27T10:48:59.168Z,7.24
2018-01-27T10:49:59.161Z,7.28
2018-01-27T10:50:59.154Z,7.39
2018-01-27T10:51:59.147Z,7.42
2018-01-27T10:52:59.141Z,7.31
2018-01-27T10:53:59.137Z,7.32
2018-01-27T10:54:59.133Z,7.31
2018-01-27T10:55:59.127Z,7.23
2018-01-27T10:56:59.115Z,7.21
2018-01-27T10:57:59.109Z,7.21
2018-01-27T10:58:59.102Z,7.31
2018-01-27T10:59:59.094Z,7.21
2018-01-27T11:00:59.088Z,7.17
2018-01-27T11:01:59.086Z,7.21
2018-01-27T11:02:59.078Z,7.23
2018-01-27T11:03:59.076Z,7.20
2018-01-27T11:04:59.067Z,7.07
2018-01-27T11:05:59.056Z,7.10
2018-01-27T11:06:59.053Z,7.24
2018-01-27T11:07:59.045Z,7.21
2018-01-27T11:08:59.041Z,7.25
2018-01-27T11:09:59.228Z,7.37
2018-01-27T11:10:59.021Z,7.32
2018-01-27T11:11:59.019Z,7.37
2018-01-27T11:12:59.013Z,7.35
2018-01-27T11:13:59.009Z,7.31
2018-01-27T11:14:59.002Z,7.35
2018-01-27T11:15:58.993Z,7.21
2018-01-27T11:16:58.984Z,7.21
2018-01-27T11:17:58.981Z,7.12
2018-01-27T11:18:58.981Z,7.07
2018-01-27T11:19:58.968Z,7.20
2018-01-27T11:20:58.959Z,7.16
2018-01-27T11:21:58.955Z,7.12
2018-01-27T11:22:58.948Z,7.21
2018-01-27T11:23:58.943Z,7.12
2018-01-27T11:24:58.939Z,7.15
2018-01-27T11:25:58.925Z,7.12
2018-01-27T11:26:58.919Z,7.20
2018-01-27T11:27:59.009Z,7.07
2018-01-27T11:28:58.902Z,7.13
2018-01-27T11:29:58.901Z,7.12
2018-01-27T11:30:58.897Z,7.20
2018-01-27T11:31:58.886Z,7.20
2018-01-27T11:32:58.882Z,7.25
2018-01-27T11:33:58.877Z,7.20
2018-01-27T11:34:58.868Z,7.24
2018-01-27T11:35:58.866Z,7.12
2018-01-27T11:36:58.857Z,7.23
2018-01-27T11:37:58.844Z,7.25
2018-01-27T11:38:58.837Z,7.20
2018-01-27T11:39:58.834Z,7.23
2018-01-27T11:40:58.827Z,7.24
2018-01-27T11:41:58.816Z,7.21
2018-01-27T11:42:58.815Z,7.28
2018-01-27T11:43:58.805Z,7.24
2018-01-27T11:44:58.800Z,7.21
2018-01-27T11:45:59.046Z,7.12
2018-01-27T11:46:58.791Z,7.09
2018-01-27T11:47:58.784Z,7.17
2018-01-27T11:48:58.773Z,7.16
2018-01-27T11:49:58.770Z,7.10
2018-01-27T11:50:58.767Z,7.07
2018-01-27T11:51:58.754Z,7.12
2018-01-27T11:52:58.748Z,7.15
2018-01-27T11:53:58.736Z,7.15
2018-01-27T11:54:58.779Z,7.17
2018-01-27T11:55:58.731Z,7.16
2018-01-27T11:56:58.724Z,7.20
2018-01-27T11:57:58.712Z,7.17
2018-01-27T11:58:58.710Z,7.10
2018-01-27T11:59:58.697Z,7.21
2018-01-27T12:00:58.691Z,7.30
2018-01-27T12:01:58.690Z,7.27
2018-01-27T12:02:58.681Z,7.40
2018-01-27T12:03:58.673Z,7.45
2018-01-27T12:04:58.667Z,7.55
2018-01-27T12:05:58.666Z,7.53
2018-01-27T12:06:58.658Z,7.52
2018-01-27T12:07:58.650Z,7.53
2018-01-27T12:08:58.642Z,7.60
2018-01-27T12:09:58.635Z,7.64
2018-01-27T12:10:58.626Z,7.57
2018-01-27T12:11:58.625Z,7.49
2018-01-27T12:12:58.619Z,7.48
2018-01-27T12:13:58.610Z,7.49
2018-01-27T12:14:58.604Z,7.39
2018-01-27T12:15:58.897Z,7.40
2018-01-27T12:16:58.588Z,7.35
2018-01-27T12:17:58.589Z,7.25
2018-01-27T12:18:58.586Z,7.31
2018-01-27T12:19:58.570Z,7.21
2018-01-27T12:20:58.563Z,7.32
2018-01-27T12:21:58.962Z,7.31
2018-01-27T12:22:58.560Z,7.32
2018-01-27T12:23:58.554Z,7.28
2018-01-27T12:24:58.545Z,7.28
2018-01-27T12:25:58.533Z,7.23
2018-01-27T12:26:58.527Z,7.25
2018-01-27T12:27:58.827Z,7.34
2018-01-27T12:28:58.522Z,7.40
2018-01-27T12:29:58.512Z,7.35
2018-01-27T12:30:58.514Z,7.40
2018-01-27T12:31:58.513Z,7.35
2018-01-27T12:32:58.487Z,7.35
2018-01-27T12:33:58.788Z,7.35
2018-01-27T12:34:58.482Z,7.35
2018-01-27T12:35:58.470Z,7.46
2018-01-27T12:36:58.466Z,7.52
2018-01-27T12:37:58.462Z,7.49
2018-01-27T12:38:58.463Z,7.46
2018-01-27T12:39:58.847Z,7.35
2018-01-27T12:40:58.439Z,7.49
2018-01-27T12:41:58.434Z,7.37
2018-01-27T12:42:58.427Z,7.31
2018-01-27T12:43:58.422Z,7.40
2018-01-27T12:44:58.419Z,7.37
2018-01-27T12:45:58.709Z,7.37
2018-01-27T12:46:58.402Z,7.39
2018-01-27T12:47:58.391Z,7.31
2018-01-27T12:48:58.387Z,7.37
2018-01-27T12:49:58.383Z,7.32
2018-01-27T12:50:58.380Z,7.37
2018-01-27T12:51:58.666Z,7.32
2018-01-27T12:52:58.361Z,7.27
2018-01-27T12:53:58.355Z,7.30
2018-01-27T12:54:58.349Z,7.28
2018-01-27T12:55:58.345Z,7.27
2018-01-27T12:56:58.344Z,7.28
2018-01-27T12:57:58.329Z,7.39
2018-01-27T12:58:58.325Z,7.30
2018-01-27T12:59:58.318Z,7.28
2018-01-27T13:00:58.311Z,7.30
2018-01-27T13:01:58.306Z,7.35
2018-01-27T13:02:58.332Z,7.30
2018-01-27T13:03:58.289Z,7.28
2018-01-27T13:04:58.287Z,7.30
2018-01-27T13:05:58.281Z,7.32
2018-01-27T13:06:58.273Z,7.20
2018-01-27T13:07:58.268Z,7.30
2018-01-27T13:08:58.264Z,7.32
2018-01-27T13:09:58.249Z,7.34
2018-01-27T13:10:58.247Z,7.42
2018-01-27T13:11:58.241Z,7.46
2018-01-27T13:12:58.229Z,7.53
2018-01-27T13:13:58.230Z,7.57
2018-01-27T13:14:58.220Z,7.55
2018-01-27T13:15:58.210Z,7.53
2018-01-27T13:16:58.207Z,7.57
2018-01-27T13:17:58.204Z,7.67